createdAt,value
2023-04-09T00:00:47.959Z,10.80
2023-04-09T00:03:17.917Z,10.80
2023-04-09T00:05:45.319Z,10.80
2023-04-09T00:08:16.630Z,10.70
2023-04-09T00:10:47.008Z,10.70
2023-04-09T00:13:25.271Z,10.80
2023-04-09T00:16:03.972Z,10.70
2023-04-09T00:18:31.552Z,10.60
2023-04-09T00:20:58.763Z,10.60
2023-04-09T00:23:26.276Z,10.70
2023-04-09T00:25:53.442Z,10.70
2023-04-09T00:28:20.902Z,10.60
2023-04-09T00:30:48.081Z,10.70
2023-04-09T00:33:15.616Z,10.60
2023-04-09T00:35:42.998Z,10.70
2023-04-09T00:38:10.666Z,10.70
2023-04-09T00:40:37.907Z,10.60
2023-04-09T00:43:05.178Z,10.60
2023-04-09T00:45:33.043Z,10.60
2023-04-09T00:48:00.568Z,10.60
2023-04-09T00:50:30.995Z,10.60
2023-04-09T00:52:58.283Z,10.60
2023-04-09T00:55:25.874Z,10.60
2023-04-09T00:57:53.265Z,10.40
2023-04-09T01:00:21.908Z,10.30
2023-04-09T01:02:51.794Z,10.40
2023-04-09T01:05:19.537Z,10.40
2023-04-09T01:08:02.321Z,10.40
2023-04-09T01:11:12.235Z,10.30
2023-04-09T01:13:51.851Z,10.40
2023-04-09T01:16:24.652Z,10.40
2023-04-09T01:19:10.018Z,10.40
2023-04-09T01:21:39.345Z,10.50
2023-04-09T01:24:28.332Z,10.50
2023-04-09T01:27:08.021Z,10.40
2023-04-09T01:29:46.047Z,10.30
2023-04-09T01:32:16.780Z,10.20
2023-04-09T01:34:48.684Z,10.30
2023-04-09T01:37:20.683Z,10.30
2023-04-09T01:39:48.052Z,10.40
2023-04-09T01:42:16.828Z,10.20
2023-04-09T01:44:49.271Z,10.20
2023-04-09T01:47:19.948Z,10.20
2023-04-09T01:49:50.104Z,10.20
2023-04-09T01:52:17.363Z,10.30
2023-04-09T01:54:44.629Z,10.30
2023-04-09T01:57:13.947Z,10.20
2023-04-09T01:59:41.254Z,10.10
2023-04-09T02:02:12.908Z,9.90
2023-04-09T02:04:48.706Z,10.00
2023-04-09T02:08:18.382Z,10.00
2023-04-09T02:11:07.009Z,10.20
2023-04-09T02:13:38.249Z,10.20
2023-04-09T02:16:16.471Z,10.10
2023-04-09T02:18:46.829Z,10.00
2023-04-09T02:21:17.202Z,10.00
2023-04-09T02:23:49.908Z,10.00
2023-04-09T02:26:20.253Z,10.00
2023-04-09T02:28:50.453Z,10.00
2023-04-09T02:31:20.927Z,10.10
2023-04-09T02:33:48.235Z,10.10
2023-04-09T02:36:18.940Z,9.90
2023-04-09T02:38:46.087Z,9.50
2023-04-09T02:41:13.453Z,9.50
2023-04-09T02:43:44.032Z,9.70
2023-04-09T02:46:11.461Z,9.90
2023-04-09T02:48:46.179Z,10.00
2023-04-09T02:51:13.361Z,10.00
2023-04-09T02:53:48.315Z,10.00
2023-04-09T02:56:15.697Z,9.90
2023-04-09T02:58:42.882Z,9.90
2023-04-09T03:01:11.213Z,9.90
2023-04-09T03:03:40.243Z,9.90
2023-04-09T03:06:07.675Z,9.80
2023-04-09T03:08:34.826Z,9.80
2023-04-09T03:11:02.130Z,9.70
2023-04-09T03:13:29.527Z,9.60
2023-04-09T03:15:59.243Z,9.70
2023-04-09T03:18:26.518Z,9.60
2023-04-09T03:20:53.795Z,9.40
2023-04-09T03:23:21.036Z,9.40
2023-04-09T03:25:48.293Z,9.30
2023-04-09T03:28:15.595Z,9.20
2023-04-09T03:30:42.784Z,9.20
2023-04-09T03:33:10.012Z,9.20
2023-04-09T03:35:37.314Z,9.20
2023-04-09T03:38:07.019Z,9.40
2023-04-09T03:40:34.192Z,9.50
2023-04-09T03:43:01.465Z,9.70
2023-04-09T03:45:29.848Z,9.60
2023-04-09T03:47:57.995Z,9.60
2023-04-09T03:50:25.377Z,9.70
2023-04-09T03:52:52.712Z,9.80
2023-04-09T03:55:20.054Z,9.80
2023-04-09T03:57:47.234Z,9.70
2023-04-09T04:00:19.989Z,9.70
2023-04-09T04:02:49.838Z,9.60
2023-04-09T04:05:17.806Z,9.60
2023-04-09T04:07:45.113Z,9.60
2023-04-09T04:10:12.488Z,9.60
2023-04-09T04:12:39.712Z,9.70
2023-04-09T04:15:07.851Z,9.70
2023-04-09T04:17:35.989Z,9.70
2023-04-09T04:20:03.294Z,9.60
2023-04-09T04:22:37.599Z,9.50
2023-04-09T04:25:05.563Z,9.50
2023-04-09T04:27:32.847Z,9.40
2023-04-09T04:30:02.374Z,9.40
2023-04-09T04:32:31.137Z,9.50
2023-04-09T04:34:58.500Z,9.40
2023-04-09T04:37:25.891Z,9.30
2023-04-09T04:39:53.023Z,9.30
2023-04-09T04:42:20.186Z,9.30
2023-04-09T04:44:47.559Z,9.20
2023-04-09T04:47:17.416Z,9.20
2023-04-09T04:49:44.544Z,9.10
2023-04-09T04:52:11.929Z,9.10
2023-04-09T04:54:41.020Z,9.20
2023-04-09T04:57:08.505Z,9.10
2023-04-09T04:59:43.050Z,9.10
2023-04-09T05:02:10.679Z,9.10
2023-04-09T05:04:37.946Z,9.10
2023-04-09T05:07:05.178Z,9.10
2023-04-09T05:09:33.475Z,9.10
2023-04-09T05:12:01.434Z,9.10
2023-04-09T05:14:28.722Z,9.00
2023-04-09T05:16:55.995Z,9.00
2023-04-09T05:19:26.161Z,9.00
2023-04-09T05:21:53.796Z,9.00
2023-04-09T05:24:21.062Z,9.00
2023-04-09T05:26:48.378Z,9.00
2023-04-09T05:29:20.412Z,8.90
2023-04-09T05:31:50.396Z,8.90
2023-04-09T05:34:18.009Z,8.80
2023-04-09T05:36:45.777Z,8.80
2023-04-09T05:39:15.665Z,8.80
2023-04-09T05:41:45.424Z,8.80
2023-04-09T05:44:15.309Z,8.80
2023-04-09T05:46:43.231Z,8.70
2023-04-09T05:49:10.867Z,8.70
2023-04-09T05:51:38.087Z,8.70
2023-04-09T05:54:05.665Z,8.60
2023-04-09T05:56:35.651Z,8.70
2023-04-09T05:59:02.931Z,8.80
2023-04-09T06:01:32.590Z,8.60
2023-04-09T06:04:00.257Z,8.70
2023-04-09T06:06:27.829Z,8.70
2023-04-09T06:08:59.717Z,8.70
2023-04-09T06:11:29.811Z,8.80
2023-04-09T06:13:57.239Z,8.90
2023-04-09T06:16:25.730Z,9.00
2023-04-09T06:19:11.105Z,9.10
2023-04-09T06:21:38.412Z,9.10
2023-04-09T06:24:08.534Z,9.10
2023-04-09T06:26:38.724Z,9.10
2023-04-09T06:29:06.027Z,9.10
2023-04-09T06:31:35.912Z,9.10
2023-04-09T06:34:06.213Z,9.00
2023-04-09T06:36:34.149Z,9.00
2023-04-09T06:39:06.805Z,8.80
2023-04-09T06:41:34.085Z,8.80
2023-04-09T06:44:01.830Z,8.80
2023-04-09T06:46:31.440Z,8.80
2023-04-09T06:48:58.756Z,8.90
2023-04-09T06:51:25.920Z,8.90
2023-04-09T06:53:56.389Z,9.00
2023-04-09T06:56:26.435Z,9.00
2023-04-09T06:58:53.662Z,9.00
2023-04-09T07:01:21.465Z,9.10
2023-04-09T07:03:48.802Z,9.10
2023-04-09T07:06:16.139Z,9.20
2023-04-09T07:08:43.284Z,9.20
2023-04-09T07:11:17.282Z,9.10
2023-04-09T07:13:44.589Z,9.20
2023-04-09T07:16:11.868Z,9.20
2023-04-09T07:18:39.303Z,9.30
2023-04-09T07:21:06.843Z,9.30
2023-04-09T07:23:39.854Z,9.30
2023-04-09T07:26:07.452Z,9.30
2023-04-09T07:28:37.570Z,9.30
2023-04-09T07:31:04.738Z,9.30
2023-04-09T07:33:32.062Z,9.40
2023-04-09T07:35:59.410Z,9.40
2023-04-09T07:38:29.451Z,9.40
2023-04-09T07:40:56.730Z,9.40
2023-04-09T07:43:26.884Z,9.40
2023-04-09T07:45:56.351Z,9.50
2023-04-09T07:48:26.910Z,9.50
2023-04-09T07:50:58.221Z,9.50
2023-04-09T07:53:30.600Z,9.70
2023-04-09T07:56:03.119Z,9.60
2023-04-09T07:58:30.585Z,9.80
2023-04-09T08:00:58.482Z,9.90
2023-04-09T08:03:45.121Z,9.70
2023-04-09T08:06:12.423Z,9.60
2023-04-09T08:08:42.515Z,9.70
2023-04-09T08:11:09.733Z,9.60
2023-04-09T08:13:36.914Z,9.60
2023-04-09T08:16:04.393Z,9.70
2023-04-09T08:18:40.621Z,9.70
2023-04-09T08:21:46.760Z,9.70
2023-04-09T08:24:40.999Z,9.60
2023-04-09T08:27:42.099Z,9.50
2023-04-09T08:30:34.870Z,9.60
2023-04-09T08:33:10.463Z,9.60
2023-04-09T08:35:45.353Z,9.40
2023-04-09T08:41:37.751Z,10.00
2023-04-09T08:44:05.202Z,9.80
2023-04-09T08:46:36.739Z,9.70
2023-04-09T08:49:11.771Z,9.60
2023-04-09T08:51:40.479Z,9.60
2023-04-09T08:54:07.915Z,9.60
2023-04-09T08:56:35.399Z,9.70
2023-04-09T08:59:03.112Z,10.00
2023-04-09T09:01:31.625Z,10.00
2023-04-09T09:04:00.934Z,9.90
2023-04-09T09:06:33.026Z,9.70
2023-04-09T09:09:17.014Z,9.80
2023-04-09T09:11:50.934Z,10.00
2023-04-09T09:14:19.951Z,9.90
2023-04-09T09:16:56.782Z,10.10
2023-04-09T09:19:42.297Z,10.10
2023-04-09T09:22:16.000Z,10.00
2023-04-09T09:25:08.214Z,9.90
2023-04-09T09:27:40.777Z,10.00
2023-04-09T09:30:21.145Z,10.30
2023-04-09T09:33:05.936Z,10.40
2023-04-09T09:35:55.450Z,10.30
2023-04-09T09:38:28.620Z,10.40
2023-04-09T09:40:56.055Z,10.40
2023-04-09T09:43:43.624Z,10.30
2023-04-09T09:46:16.237Z,10.40
2023-04-09T09:48:50.803Z,10.20
2023-04-09T09:51:22.600Z,10.20
2023-04-09T09:53:56.304Z,10.20
2023-04-09T09:56:32.764Z,10.20
2023-04-09T09:59:07.905Z,10.30
2023-04-09T10:01:40.250Z,10.20
2023-04-09T10:04:14.381Z,10.20
2023-04-09T10:06:44.767Z,10.20
2023-04-09T10:09:13.258Z,10.20
2023-04-09T10:11:43.937Z,10.40
2023-04-09T10:14:11.327Z,10.50
2023-04-09T10:16:38.697Z,10.70
2023-04-09T10:19:07.177Z,10.70
2023-04-09T10:22:11.047Z,10.70
2023-04-09T10:24:38.463Z,10.90
2023-04-09T10:27:16.130Z,11.00
2023-04-09T10:29:49.044Z,11.00
2023-04-09T10:32:26.596Z,10.80
2023-04-09T10:34:58.592Z,10.90
2023-04-09T10:37:27.273Z,10.90
2023-04-09T10:39:54.631Z,10.90
2023-04-09T10:42:27.314Z,10.70
2023-04-09T10:45:15.276Z,10.80
2023-04-09T10:47:43.894Z,10.70
2023-04-09T10:50:24.176Z,10.70
2023-04-09T10:53:00.605Z,10.80
2023-04-09T10:55:41.359Z,10.80
2023-04-09T10:58:17.296Z,11.00
2023-04-09T11:00:50.085Z,11.10
2023-04-09T11:03:20.937Z,11.10
2023-04-09T11:06:11.702Z,11.30
2023-04-09T11:08:39.386Z,11.40
2023-04-09T11:11:07.038Z,11.30
2023-04-09T11:13:34.728Z,11.20
2023-04-09T11:16:07.323Z,11.20
2023-04-09T11:18:37.470Z,11.10
2023-04-09T11:21:05.160Z,11.20
2023-04-09T11:23:33.460Z,11.20
2023-04-09T11:26:02.212Z,11.20
2023-04-09T11:28:29.538Z,11.30
2023-04-09T11:31:00.069Z,11.30
2023-04-09T11:33:34.608Z,11.30
2023-04-09T11:36:04.700Z,11.40
2023-04-09T11:38:32.098Z,11.20
2023-04-09T11:40:59.308Z,11.30
2023-04-09T11:43:26.565Z,11.10
2023-04-09T11:45:57.637Z,11.10
2023-04-09T11:48:25.118Z,11.30
2023-04-09T11:50:52.825Z,11.30
2023-04-09T11:53:21.425Z,11.30
2023-04-09T11:55:52.325Z,11.50
2023-04-09T11:58:24.251Z,11.40
2023-04-09T12:00:56.582Z,11.30
2023-04-09T12:03:33.475Z,11.10
2023-04-09T12:06:03.008Z,11.10
2023-04-09T12:08:34.361Z,11.20
2023-04-09T12:11:10.328Z,11.30
2023-04-09T12:13:40.293Z,11.30
2023-04-09T12:16:07.491Z,11.30
2023-04-09T12:18:38.277Z,11.20
2023-04-09T12:21:06.388Z,11.40
2023-04-09T12:23:33.682Z,11.60
2023-04-09T12:26:02.407Z,11.50
2023-04-09T12:28:29.968Z,11.60
2023-04-09T12:30:59.003Z,11.60
2023-04-09T12:33:26.258Z,11.60
2023-04-09T12:35:53.553Z,11.80
2023-04-09T12:38:21.010Z,11.80
2023-04-09T12:40:50.745Z,11.90
2023-04-09T12:43:18.066Z,12.00
2023-04-09T12:45:45.344Z,12.20
2023-04-09T12:48:12.738Z,12.30
2023-04-09T12:50:40.054Z,12.20
2023-04-09T12:53:07.919Z,12.20
2023-04-09T12:55:35.189Z,12.30
2023-04-09T12:58:02.780Z,12.60
2023-04-09T13:00:31.664Z,12.80
2023-04-09T13:02:59.555Z,13.00
2023-04-09T13:05:27.146Z,13.30
2023-04-09T13:07:54.358Z,13.30
2023-04-09T13:10:21.500Z,13.40
2023-04-09T13:12:50.209Z,13.50
2023-04-09T13:15:17.439Z,13.50
2023-04-09T13:17:44.698Z,13.70
2023-04-09T13:20:12.307Z,13.40
2023-04-09T13:22:39.602Z,13.40
2023-04-09T13:25:07.065Z,13.30
2023-04-09T13:27:34.236Z,12.90
2023-04-09T13:30:01.447Z,13.00
2023-04-09T13:32:28.698Z,12.90
2023-04-09T13:34:58.052Z,12.90
2023-04-09T13:37:26.174Z,13.10
2023-04-09T13:39:53.364Z,13.00
2023-04-09T13:42:22.693Z,13.00
2023-04-09T13:44:49.892Z,12.90
2023-04-09T13:47:21.956Z,12.90
2023-04-09T13:49:51.734Z,12.90
2023-04-09T13:52:19.248Z,12.60
2023-04-09T13:54:46.595Z,12.40
2023-04-09T13:57:13.970Z,12.40
2023-04-09T13:59:42.549Z,12.30
2023-04-09T14:02:09.996Z,12.40
2023-04-09T14:04:37.535Z,12.40
2023-04-09T14:07:04.898Z,12.50
2023-04-09T14:09:32.417Z,12.70
2023-04-09T14:11:59.597Z,12.90
2023-04-09T14:14:26.780Z,12.90
2023-04-09T14:16:54.862Z,12.90
2023-04-09T14:19:23.125Z,12.90
2023-04-09T14:21:53.467Z,12.90
2023-04-09T14:24:23.241Z,12.70
2023-04-09T14:26:53.587Z,12.60
2023-04-09T14:29:21.719Z,12.50
2023-04-09T14:31:49.028Z,12.40
2023-04-09T14:34:16.257Z,12.40
2023-04-09T14:36:44.037Z,12.30
2023-04-09T14:39:11.462Z,12.30
2023-04-09T14:41:38.670Z,12.30
2023-04-09T14:44:05.926Z,12.20
2023-04-09T14:46:33.200Z,12.10
2023-04-09T14:49:00.469Z,12.10
2023-04-09T14:51:28.656Z,12.20
2023-04-09T14:53:56.608Z,12.20
2023-04-09T14:56:25.242Z,12.30
2023-04-09T14:58:55.393Z,12.30
2023-04-09T15:01:22.857Z,12.20
2023-04-09T15:03:50.259Z,12.10
2023-04-09T15:06:17.613Z,12.10
2023-04-09T15:08:45.655Z,12.00
2023-04-09T15:11:23.080Z,12.10
2023-04-09T15:13:51.921Z,12.00
2023-04-09T15:16:28.128Z,12.00
2023-04-09T15:18:57.797Z,12.00
2023-04-09T15:21:25.111Z,12.10
2023-04-09T15:23:52.602Z,12.10
2023-04-09T15:26:23.374Z,12.00
2023-04-09T15:31:21.832Z,12.10
2023-04-09T15:33:50.449Z,12.20
2023-04-09T15:36:17.760Z,12.00
2023-04-09T15:38:44.998Z,11.90
2023-04-09T15:41:12.183Z,11.90
2023-04-09T15:43:39.323Z,11.90
2023-04-09T15:46:10.865Z,11.80
2023-04-09T15:48:40.003Z,11.80
2023-04-09T15:51:09.122Z,11.70
2023-04-09T15:53:36.339Z,11.70
2023-04-09T15:56:05.336Z,11.70
2023-04-09T15:58:32.877Z,11.70
2023-04-09T16:01:00.164Z,11.60
2023-04-09T16:03:31.525Z,11.70
2023-04-09T16:06:01.979Z,11.60
2023-04-09T16:08:29.193Z,11.60
2023-04-09T16:10:56.590Z,11.60
2023-04-09T16:13:23.954Z,11.60
2023-04-09T16:15:51.256Z,11.60
2023-04-09T16:18:18.600Z,11.50
2023-04-09T16:20:45.844Z,11.50
2023-04-09T16:23:15.611Z,11.30
2023-04-09T16:25:42.828Z,11.20
2023-04-09T16:28:10.038Z,11.00
2023-04-09T16:30:38.337Z,10.90
2023-04-09T16:33:05.559Z,10.90
2023-04-09T16:35:32.785Z,10.80
2023-04-09T16:38:00.146Z,10.70
2023-04-09T16:40:27.401Z,10.60
2023-04-09T16:42:56.126Z,10.40
2023-04-09T16:45:24.405Z,10.40
2023-04-09T16:47:54.017Z,10.20
2023-04-09T16:50:26.437Z,10.20
2023-04-09T16:52:56.806Z,10.00
2023-04-09T16:55:26.102Z,9.90
2023-04-09T16:57:56.058Z,9.80
2023-04-09T17:00:25.605Z,9.80
2023-04-09T17:02:53.133Z,9.90
2023-04-09T17:05:20.500Z,9.90
2023-04-09T17:07:47.844Z,10.00
2023-04-09T17:10:19.111Z,10.00
2023-04-09T17:12:47.429Z,9.90
2023-04-09T17:15:15.812Z,9.90
2023-04-09T17:17:46.776Z,9.80
2023-04-09T17:20:14.884Z,9.70
2023-04-09T17:22:45.448Z,9.60
2023-04-09T17:25:14.501Z,9.70
2023-04-09T17:27:44.037Z,9.80
2023-04-09T17:30:12.590Z,9.80
2023-04-09T17:32:41.164Z,9.90
2023-04-09T17:35:08.849Z,9.80
2023-04-09T17:37:36.610Z,9.70
2023-04-09T17:40:13.578Z,9.70
2023-04-09T17:42:48.564Z,9.80
2023-04-09T17:45:17.425Z,9.80
2023-04-09T17:47:44.640Z,9.80
2023-04-09T17:50:12.167Z,9.80
2023-04-09T17:52:41.882Z,9.80
2023-04-09T17:55:14.154Z,9.90
2023-04-09T17:57:41.894Z,9.90
2023-04-09T18:00:11.433Z,10.00
2023-04-09T18:02:39.170Z,10.00
2023-04-09T18:05:07.585Z,9.90
2023-04-09T18:07:34.988Z,9.90
2023-04-09T18:10:08.947Z,9.90
2023-04-09T18:12:39.131Z,9.90
2023-04-09T18:15:07.232Z,9.90
2023-04-09T18:17:34.434Z,9.90
2023-04-09T18:20:02.004Z,10.00
2023-04-09T18:22:29.402Z,10.10
2023-04-09T18:24:57.724Z,10.00
2023-04-09T18:27:26.647Z,9.90
2023-04-09T18:29:56.501Z,9.90
2023-04-09T18:32:28.525Z,9.80
2023-04-09T18:34:56.315Z,9.70
2023-04-09T18:37:27.935Z,9.80
2023-04-09T18:40:01.975Z,9.80
2023-04-09T18:42:30.113Z,9.80
2023-04-09T18:44:57.587Z,9.90
2023-04-09T18:47:26.618Z,10.00
2023-04-09T18:49:53.890Z,10.00
2023-04-09T18:52:24.997Z,9.90
2023-04-09T18:54:55.582Z,9.80
2023-04-09T18:57:23.525Z,10.00
2023-04-09T18:59:51.815Z,10.00
2023-04-09T19:02:22.816Z,9.70
2023-04-09T19:04:53.189Z,9.50
2023-04-09T19:07:23.304Z,9.50
2023-04-09T19:09:50.612Z,9.60
2023-04-09T19:12:24.156Z,9.70
2023-04-09T19:14:51.964Z,9.60
2023-04-09T19:17:32.182Z,9.60
2023-04-09T19:20:06.104Z,9.70
2023-04-09T19:22:35.547Z,9.70
2023-04-09T19:25:04.353Z,9.60
2023-04-09T19:27:46.835Z,9.60
2023-04-09T19:30:14.461Z,9.60
2023-04-09T19:33:24.838Z,9.80
2023-04-09T19:36:30.000Z,9.90
2023-04-09T19:39:36.625Z,10.00
2023-04-09T19:42:18.325Z,10.10
2023-04-09T19:44:54.516Z,10.10
2023-04-09T19:47:26.913Z,10.10
2023-04-09T19:50:01.694Z,10.10
2023-04-09T19:52:42.154Z,10.10
2023-04-09T19:55:21.131Z,10.10
2023-04-09T19:58:23.656Z,10.00
2023-04-09T20:00:53.968Z,10.00
2023-04-09T20:03:39.425Z,9.90
2023-04-09T20:06:26.487Z,9.90
2023-04-09T20:09:04.995Z,9.90
2023-04-09T20:11:36.866Z,10.00
2023-04-09T20:14:20.509Z,10.00
2023-04-09T20:17:02.849Z,10.00
2023-04-09T20:19:37.172Z,10.00
2023-04-09T20:22:07.538Z,10.10
2023-04-09T20:24:40.980Z,10.30
2023-04-09T20:27:14.568Z,10.40
2023-04-09T20:32:37.969Z,9.90
2023-04-09T20:35:12.283Z,9.90
2023-04-09T20:37:42.724Z,10.00
2023-04-09T20:40:11.779Z,10.10
2023-04-09T20:42:45.756Z,10.10
2023-04-09T20:45:13.101Z,10.10
2023-04-09T20:47:50.138Z,10.00
2023-04-09T20:50:22.945Z,10.00
2023-04-09T20:53:09.543Z,10.00
2023-04-09T20:55:45.681Z,9.70
2023-04-09T20:58:20.225Z,9.50
2023-04-09T21:00:53.384Z,9.60
2023-04-09T21:03:29.466Z,9.70
2023-04-09T21:05:57.110Z,9.70
2023-04-09T21:08:27.102Z,9.70
2023-04-09T21:11:10.068Z,9.60
2023-04-09T21:13:54.683Z,9.50
2023-04-09T21:16:27.317Z,9.60
2023-04-09T21:18:59.016Z,9.60
2023-04-09T21:21:30.195Z,9.80
2023-04-09T21:24:00.367Z,9.80
2023-04-09T21:26:31.685Z,9.50
2023-04-09T21:29:09.471Z,9.20
2023-04-09T21:32:05.667Z,9.30
2023-04-09T21:34:43.594Z,9.50
2023-04-09T21:37:11.136Z,9.50
2023-04-09T21:39:38.943Z,9.80
2023-04-09T21:42:07.596Z,9.90
2023-04-09T21:44:35.122Z,9.70
2023-04-09T21:47:07.541Z,9.70
2023-04-09T21:49:39.337Z,9.40
2023-04-09T21:52:16.833Z,9.30
2023-04-09T21:54:44.433Z,9.20
2023-04-09T21:57:11.923Z,9.10
2023-04-09T21:59:41.371Z,9.10
2023-04-09T22:02:09.532Z,9.10
2023-04-09T22:04:37.011Z,9.10
2023-04-09T22:07:04.496Z,9.10
2023-04-09T22:09:31.942Z,8.90
2023-04-09T22:11:59.814Z,9.20
2023-04-09T22:14:33.516Z,9.30
2023-04-09T22:20:08.292Z,9.10
2023-04-09T22:22:38.701Z,9.00
2023-04-09T22:25:14.385Z,8.90
2023-04-09T22:27:51.885Z,8.90
2023-04-09T22:30:29.706Z,9.10
2023-04-09T22:32:58.620Z,9.10
2023-04-09T22:35:25.922Z,9.20
2023-04-09T22:37:56.073Z,9.30
2023-04-09T22:40:23.316Z,9.10
2023-04-09T22:42:51.125Z,9.10
2023-04-09T22:45:18.403Z,9.00
2023-04-09T22:47:45.627Z,9.10
2023-04-09T22:50:14.090Z,9.20
2023-04-09T22:52:42.768Z,9.30
2023-04-09T22:58:24.568Z,9.40
2023-04-09T23:01:08.365Z,9.40
2023-04-09T23:03:37.224Z,9.40
2023-04-09T23:06:04.824Z,9.20
2023-04-09T23:08:32.115Z,9.00
2023-04-09T23:10:59.644Z,9.10
2023-04-09T23:13:27.408Z,9.10
2023-04-09T23:15:54.576Z,9.20
2023-04-09T23:18:23.076Z,9.20
2023-04-09T23:20:50.431Z,9.10
2023-04-09T23:23:17.832Z,9.10
2023-04-09T23:25:45.014Z,9.20
2023-04-09T23:28:12.141Z,9.20
2023-04-09T23:30:42.398Z,9.30
2023-04-09T23:33:12.649Z,9.20
2023-04-09T23:35:42.512Z,9.20
2023-04-09T23:38:09.665Z,9.20
2023-04-09T23:40:36.896Z,9.20
2023-04-09T23:43:06.759Z,9.10
2023-04-09T23:45:35.514Z,9.10
2023-04-09T23:48:09.329Z,9.10
2023-04-09T23:50:40.764Z,9.10
2023-04-09T23:53:08.392Z,9.10
2023-04-09T23:55:40.976Z,9.00
2023-04-09T23:58:08.662Z,9.00
